Time;durP1;ratioP1;P1;durP2;ratioP2;P2;SDS_P1;SDS_P2;PMS_P1;PMS_P2;Temp;Humidity;BMP_temperature;BMP_pressure;BME280_temperature;BME280_humidity;BME280_pressure;Samples;Min_cycle;Max_cycle;Signal;HPM_P1;HPM_P2
2022/01/06 00:01:12;;;;;;;;;;;4.10;99.90;;;;;;5026286;28;19921;-87
2022/01/06 00:03:37;;;;;;;;;;;4.10;99.90;;;;;;5036594;28;19919;-87
2022/01/06 00:06:06;;;;;;;;;;;4.10;99.90;;;;;;5033514;28;19909;-86
2022/01/06 00:08:34;;;;;;;;;;;4.10;99.90;;;;;;5039009;28;19913;-86
2022/01/06 00:10:59;;;;;;;;;;;4.20;99.90;;;;;;5035420;28;19909;-86
2022/01/06 00:13:43;;;;;;;;;;;4.20;99.90;;;;;;5038131;28;19978;-87
2022/01/06 00:24:14;;;;;;;;;;;4.20;99.90;;;;;;5051454;28;19920;-87
2022/01/06 00:26:40;;;;;;;;;;;4.20;99.90;;;;;;5052268;28;20451;-87
2022/01/06 00:29:06;;;;;;;;;;;4.10;99.90;;;;;;5041771;28;19909;-86
2022/01/06 00:31:32;;;;;;;;;;;4.20;99.90;;;;;;5035988;28;19920;-86
2022/01/06 00:33:57;;;;;;;;;;;4.20;99.90;;;;;;5035072;28;19962;-86
2022/01/06 00:36:23;;;;;;;;;;;4.10;99.90;;;;;;5043140;28;20027;-87
2022/01/06 00:38:49;;;;;;;;;;;4.20;99.90;;;;;;5051052;28;20322;-87
2022/01/06 00:41:14;;;;;;;;;;;4.10;99.90;;;;;;5033876;28;20499;-86
2022/01/06 00:43:39;;;;;;;;;;;4.20;99.90;;;;;;5035826;28;20222;-86
2022/01/06 00:46:05;;;;;;;;;;;4.20;99.90;;;;;;5051178;28;20557;-87
2022/01/06 00:48:30;;;;;;;;;;;4.10;99.90;;;;;;5052185;28;19986;-86
2022/01/06 00:50:56;;;;;;;;;;;4.00;99.90;;;;;;5039148;28;19916;-87
2022/01/06 00:53:21;;;;;;;;;;;3.90;99.90;;;;;;5040675;28;20640;-86
2022/01/06 00:55:47;;;;;;;;;;;3.80;99.90;;;;;;5038801;28;19912;-86
2022/01/06 00:58:13;;;;;;;;;;;3.80;99.90;;;;;;5039473;28;19958;-86
2022/01/06 01:00:39;;;;;;;;;;;3.70;99.90;;;;;;5038042;28;20416;-86
2022/01/06 01:03:06;;;;;;;;;;;3.60;99.90;;;;;;5055797;28;19909;-87
2022/01/06 01:05:32;;;;;;;;;;;3.60;99.90;;;;;;5037861;28;19977;-86
2022/01/06 01:07:57;;;;;;;;;;;3.60;99.90;;;;;;5039681;28;20451;-86
2022/01/06 01:10:22;;;;;;;;;;;3.50;99.90;;;;;;5037588;28;19927;-86
2022/01/06 01:12:49;;;;;;;;;;;3.40;99.90;;;;;;5039311;28;19912;-86
2022/01/06 01:15:19;;;;;;;;;;;3.40;99.90;;;;;;5038074;28;19959;-86
2022/01/06 01:17:48;;;;;;;;;;;3.40;99.90;;;;;;5042682;28;19939;-86
2022/01/06 01:20:15;;;;;;;;;;;3.30;99.90;;;;;;5047007;28;19920;-86
2022/01/06 01:22:41;;;;;;;;;;;3.30;99.90;;;;;;5055142;28;20327;-86
2022/01/06 01:25:06;;;;;;;;;;;3.30;99.90;;;;;;5039555;28;19967;-86
2022/01/06 01:27:38;;;;;;;;;;;3.30;99.90;;;;;;5039134;28;19912;-86
2022/01/06 01:30:09;;;;;;;;;;;3.20;99.90;;;;;;5055107;28;20269;-86
2022/01/06 01:32:37;;;;;;;;;;;3.20;99.90;;;;;;5036348;28;20019;-86
2022/01/06 01:35:03;;;;;;;;;;;3.20;99.90;;;;;;5054470;28;19913;-86
2022/01/06 01:37:30;;;;;;;;;;;3.20;99.90;;;;;;5039424;28;19965;-86
2022/01/06 01:39:55;;;;;;;;;;;3.20;99.90;;;;;;5038981;28;19916;-86
2022/01/06 01:42:21;;;;;;;;;;;3.10;99.90;;;;;;5039299;28;20034;-86
2022/01/06 01:44:48;;;;;;;;;;;3.00;99.90;;;;;;5039347;28;19958;-86
2022/01/06 01:47:15;;;;;;;;;;;3.00;99.90;;;;;;5039313;28;19913;-86
2022/01/06 01:49:55;;;;;;;;;;;2.90;99.90;;;;;;5050723;28;20369;-86
2022/01/06 01:52:20;;;;;;;;;;;2.90;99.90;;;;;;5040063;28;19999;-86
2022/01/06 01:54:46;;;;;;;;;;;2.80;99.90;;;;;;5040277;28;20051;-86
2022/01/06 01:57:12;;;;;;;;;;;2.70;99.90;;;;;;5052217;28;19913;-86
2022/01/06 01:59:37;;;;;;;;;;;2.70;99.90;;;;;;5035739;28;19916;-86
2022/01/06 02:02:03;;;;;;;;;;;2.80;99.90;;;;;;5037698;28;20031;-86
2022/01/06 02:04:28;;;;;;;;;;;2.80;99.90;;;;;;5038970;28;19973;-86
2022/01/06 02:06:54;;;;;;;;;;;2.80;99.90;;;;;;5039704;28;20390;-86
2022/01/06 02:09:19;;;;;;;;;;;2.80;99.90;;;;;;5038773;28;19912;-87
2022/01/06 02:11:45;;;;;;;;;;;2.80;99.90;;;;;;5052129;28;20461;-86
2022/01/06 02:14:10;;;;;;;;;;;2.70;99.90;;;;;;5035837;28;19912;-86
2022/01/06 02:16:37;;;;;;;;;;;2.70;99.90;;;;;;5051072;28;19909;-86
2022/01/06 02:19:05;;;;;;;;;;;2.70;99.90;;;;;;5038495;28;20537;-86
2022/01/06 02:21:30;;;;;;;;;;;2.70;99.90;;;;;;5034965;28;20020;-86
2022/01/06 02:23:56;;;;;;;;;;;2.70;99.90;;;;;;5036486;28;19940;-86
2022/01/06 02:26:21;;;;;;;;;;;2.70;99.90;;;;;;5052373;28;19920;-86
2022/01/06 02:28:47;;;;;;;;;;;2.70;99.90;;;;;;5037814;28;20495;-86
2022/01/06 02:31:12;;;;;;;;;;;2.70;99.90;;;;;;5034214;28;20370;-86
2022/01/06 02:33:38;;;;;;;;;;;2.70;99.90;;;;;;5037609;28;19913;-86
2022/01/06 02:36:04;;;;;;;;;;;2.70;99.90;;;;;;5033292;28;20268;-86
2022/01/06 02:38:30;;;;;;;;;;;2.70;99.90;;;;;;5052119;28;20371;-86
2022/01/06 02:40:55;;;;;;;;;;;2.80;99.90;;;;;;5036564;28;19917;-86
2022/01/06 02:43:23;;;;;;;;;;;2.80;99.90;;;;;;5051324;28;19935;-86
2022/01/06 02:45:49;;;;;;;;;;;2.80;99.90;;;;;;5050343;28;20583;-86
2022/01/06 02:48:15;;;;;;;;;;;2.70;99.90;;;;;;5038118;28;19939;-86
2022/01/06 02:50:42;;;;;;;;;;;2.80;99.90;;;;;;5038208;28;20714;-86
2022/01/06 02:53:08;;;;;;;;;;;2.80;99.90;;;;;;5036460;28;19908;-86
2022/01/06 02:55:34;;;;;;;;;;;2.70;99.90;;;;;;5035940;28;19908;-86
2022/01/06 02:58:00;;;;;;;;;;;2.70;99.90;;;;;;5036799;28;19912;-86
2022/01/06 03:00:26;;;;;;;;;;;2.80;99.90;;;;;;5035658;28;19958;-86
2022/01/06 03:02:52;;;;;;;;;;;2.70;99.90;;;;;;5035322;28;20379;-86
2022/01/06 03:05:18;;;;;;;;;;;2.80;99.90;;;;;;5052848;28;19920;-85
2022/01/06 03:07:44;;;;;;;;;;;2.80;99.90;;;;;;5037648;28;19915;-86
2022/01/06 03:10:12;;;;;;;;;;;2.70;99.90;;;;;;5033595;28;19912;-86
2022/01/06 03:12:41;;;;;;;;;;;2.70;99.90;;;;;;5039402;28;20509;-86
2022/01/06 03:15:11;;;;;;;;;;;2.70;99.90;;;;;;5034618;28;19909;-87
2022/01/06 03:17:37;;;;;;;;;;;2.60;99.90;;;;;;5034855;28;19959;-86
2022/01/06 03:20:04;;;;;;;;;;;2.60;99.90;;;;;;5049319;28;19955;-86
2022/01/06 03:22:29;;;;;;;;;;;2.50;99.90;;;;;;5019353;28;20796;-86
2022/01/06 03:24:55;;;;;;;;;;;2.40;99.90;;;;;;5051900;28;19948;-86
2022/01/06 03:27:20;;;;;;;;;;;2.30;99.90;;;;;;5032780;28;20019;-86
2022/01/06 03:29:46;;;;;;;;;;;2.20;99.90;;;;;;5041226;28;19971;-85
2022/01/06 03:32:11;;;;;;;;;;;2.20;99.90;;;;;;5049782;28;19912;-86
2022/01/06 03:34:37;;;;;;;;;;;2.20;99.90;;;;;;5051305;28;20021;-86
2022/01/06 03:37:05;;;;;;;;;;;2.20;99.90;;;;;;5034292;28;19940;-87
2022/01/06 03:39:30;;;;;;;;;;;2.10;99.90;;;;;;5050808;28;20411;-86
2022/01/06 03:41:56;;;;;;;;;;;2.00;99.90;;;;;;5047935;28;19920;-86
2022/01/06 03:44:21;;;;;;;;;;;2.00;99.90;;;;;;5034135;28;19947;-86
2022/01/06 03:46:47;;;;;;;;;;;1.90;99.90;;;;;;5037323;28;19913;-86
2022/01/06 03:49:12;;;;;;;;;;;1.80;99.90;;;;;;5048666;28;20612;-86
2022/01/06 03:51:38;;;;;;;;;;;1.80;99.90;;;;;;5034349;28;19913;-86
2022/01/06 03:54:03;;;;;;;;;;;1.90;99.90;;;;;;5035366;28;19912;-86
2022/01/06 03:56:29;;;;;;;;;;;1.80;99.90;;;;;;5048849;28;19916;-86
2022/01/06 03:58:54;;;;;;;;;;;1.80;99.90;;;;;;5034321;28;19919;-86
2022/01/06 04:01:20;;;;;;;;;;;1.70;99.90;;;;;;5034850;28;20445;-86
2022/01/06 04:03:47;;;;;;;;;;;1.70;99.90;;;;;;5037746;28;19920;-86
2022/01/06 04:06:13;;;;;;;;;;;1.60;99.90;;;;;;5032688;28;20249;-86
2022/01/06 04:08:39;;;;;;;;;;;1.60;99.90;;;;;;5050201;28;19919;-86
2022/01/06 04:11:04;;;;;;;;;;;1.60;99.90;;;;;;5035174;28;20268;-86
2022/01/06 04:13:33;;;;;;;;;;;1.50;99.90;;;;;;5034378;28;19962;-86
2022/01/06 04:16:01;;;;;;;;;;;1.40;99.90;;;;;;5036548;28;19915;-85
2022/01/06 04:18:27;;;;;;;;;;;1.50;99.90;;;;;;5036459;28;20048;-85
2022/01/06 04:20:53;;;;;;;;;;;1.50;99.90;;;;;;5052437;28;20423;-86
2022/01/06 04:23:18;;;;;;;;;;;1.50;99.90;;;;;;5038713;28;20043;-85
2022/01/06 04:25:44;;;;;;;;;;;1.40;99.90;;;;;;5037683;28;19916;-86
2022/01/06 04:28:09;;;;;;;;;;;1.40;99.90;;;;;;5038660;28;19920;-85
2022/01/06 04:30:38;;;;;;;;;;;1.40;99.90;;;;;;5052406;28;20015;-85
2022/01/06 04:33:03;;;;;;;;;;;1.40;99.90;;;;;;5038042;28;19909;-85
2022/01/06 04:35:29;;;;;;;;;;;1.30;99.90;;;;;;5038098;28;19924;-86
2022/01/06 04:37:54;;;;;;;;;;;1.30;99.90;;;;;;5052621;28;19912;-86
2022/01/06 04:40:20;;;;;;;;;;;1.30;99.90;;;;;;5039665;28;19931;-86
2022/01/06 04:42:45;;;;;;;;;;;1.30;99.90;;;;;;5054035;28;19947;-86
2022/01/06 04:45:11;;;;;;;;;;;1.20;99.90;;;;;;5038764;28;19912;-85
2022/01/06 04:47:36;;;;;;;;;;;1.20;99.90;;;;;;5039792;28;19908;-85
2022/01/06 04:50:02;;;;;;;;;;;1.20;99.90;;;;;;5055137;28;19974;-85
2022/01/06 04:52:28;;;;;;;;;;;1.20;99.90;;;;;;5052274;28;19917;-85
2022/01/06 04:54:53;;;;;;;;;;;1.20;99.90;;;;;;5038892;28;19912;-85
2022/01/06 04:57:19;;;;;;;;;;;1.20;99.90;;;;;;5054786;28;20479;-85
2022/01/06 04:59:44;;;;;;;;;;;1.20;99.90;;;;;;5039142;28;19912;-86
2022/01/06 05:02:10;;;;;;;;;;;1.10;99.90;;;;;;5038480;28;19966;-86
2022/01/06 05:04:35;;;;;;;;;;;1.10;99.90;;;;;;5038538;28;20832;-86
2022/01/06 05:07:01;;;;;;;;;;;1.10;99.90;;;;;;5044718;28;19913;-86
2022/01/06 05:09:26;;;;;;;;;;;1.10;99.90;;;;;;5038674;28;20129;-85
2022/01/06 05:11:52;;;;;;;;;;;1.10;99.90;;;;;;5039754;28;20541;-86
2022/01/06 05:14:17;;;;;;;;;;;1.10;99.90;;;;;;5039295;28;20166;-85
2022/01/06 05:16:43;;;;;;;;;;;1.00;99.90;;;;;;5038699;28;19909;-86
2022/01/06 05:19:08;;;;;;;;;;;1.00;99.90;;;;;;5037355;28;20412;-85
2022/01/06 05:21:34;;;;;;;;;;;1.00;99.90;;;;;;5052909;28;19924;-86
2022/01/06 05:24:00;;;;;;;;;;;0.90;99.90;;;;;;5038380;28;19913;-86
2022/01/06 05:26:26;;;;;;;;;;;1.00;99.90;;;;;;5052628;28;20340;-86
2022/01/06 05:28:51;;;;;;;;;;;0.90;99.90;;;;;;5038408;28;19959;-86
2022/01/06 05:31:17;;;;;;;;;;;0.80;99.90;;;;;;5038282;28;19950;-86
2022/01/06 05:33:42;;;;;;;;;;;0.80;99.90;;;;;;5052428;28;19912;-86
2022/01/06 05:36:08;;;;;;;;;;;0.80;99.90;;;;;;5053906;28;19919;-86
2022/01/06 05:38:33;;;;;;;;;;;0.90;99.90;;;;;;5054467;28;19962;-86
2022/01/06 05:40:59;;;;;;;;;;;0.90;99.90;;;;;;5045881;28;20275;-86
2022/01/06 05:43:25;;;;;;;;;;;0.90;99.90;;;;;;5038732;28;20175;-86
2022/01/06 05:45:52;;;;;;;;;;;0.90;99.90;;;;;;5054095;28;19913;-86
2022/01/06 05:48:17;;;;;;;;;;;0.70;99.90;;;;;;5053315;28;20413;-86
2022/01/06 05:50:44;;;;;;;;;;;0.70;99.90;;;;;;5036364;28;19995;-86
2022/01/06 05:53:09;;;;;;;;;;;0.60;99.90;;;;;;5033437;28;19913;-88
2022/01/06 05:55:35;;;;;;;;;;;0.60;99.90;;;;;;5037497;28;19974;-84
2022/01/06 05:58:00;;;;;;;;;;;0.60;99.90;;;;;;5036538;28;19960;-85
2022/01/06 06:00:26;;;;;;;;;;;0.70;99.90;;;;;;5038748;28;19955;-85
2022/01/06 06:02:51;;;;;;;;;;;0.60;99.90;;;;;;5050007;28;19917;-85
2022/01/06 06:05:17;;;;;;;;;;;0.50;99.90;;;;;;5035395;28;19963;-85
2022/01/06 06:07:42;;;;;;;;;;;0.60;99.90;;;;;;5055791;28;19917;-85
2022/01/06 06:10:08;;;;;;;;;;;0.60;99.90;;;;;;5036873;28;20368;-85
2022/01/06 06:12:33;;;;;;;;;;;0.50;99.90;;;;;;5036710;28;19912;-85
2022/01/06 06:14:59;;;;;;;;;;;0.50;99.90;;;;;;5038957;28;19940;-85
2022/01/06 06:17:24;;;;;;;;;;;0.50;99.90;;;;;;5036665;28;19912;-85
2022/01/06 06:19:51;;;;;;;;;;;0.60;99.90;;;;;;5036747;28;19924;-85
2022/01/06 06:22:17;;;;;;;;;;;0.50;99.90;;;;;;5034395;28;19920;-86
2022/01/06 06:24:44;;;;;;;;;;;0.60;99.90;;;;;;5049935;28;19922;-85
2022/01/06 06:27:10;;;;;;;;;;;0.60;99.90;;;;;;5034216;28;19919;-85
2022/01/06 06:29:37;;;;;;;;;;;0.60;99.90;;;;;;5050508;28;20657;-85
2022/01/06 06:32:03;;;;;;;;;;;0.50;99.90;;;;;;5037208;28;19922;-85
2022/01/06 06:34:28;;;;;;;;;;;0.50;99.90;;;;;;5049226;28;19925;-85
2022/01/06 06:36:54;;;;;;;;;;;0.60;99.90;;;;;;5035960;28;19919;-85
2022/01/06 06:39:19;;;;;;;;;;;0.50;99.90;;;;;;5035187;28;19919;-85
2022/01/06 06:41:44;;;;;;;;;;;0.50;99.90;;;;;;5034729;28;19916;-85
2022/01/06 06:44:10;;;;;;;;;;;0.50;99.90;;;;;;5050871;28;19931;-85
2022/01/06 06:46:36;;;;;;;;;;;0.50;99.90;;;;;;5036133;28;19952;-86
2022/01/06 06:49:01;;;;;;;;;;;0.50;99.90;;;;;;5035540;28;19987;-85
2022/01/06 06:51:27;;;;;;;;;;;0.50;99.90;;;;;;5050967;28;20417;-83
2022/01/06 06:53:52;;;;;;;;;;;0.50;99.90;;;;;;5039108;28;19913;-83
2022/01/06 06:56:18;;;;;;;;;;;0.50;99.90;;;;;;5051722;28;19912;-84
2022/01/06 06:58:43;;;;;;;;;;;0.70;99.90;;;;;;5052827;28;19912;-83
2022/01/06 07:01:09;;;;;;;;;;;0.60;99.90;;;;;;5024324;28;19917;-83
2022/01/06 07:03:34;;;;;;;;;;;0.50;99.90;;;;;;5051792;28;20443;-83
2022/01/06 07:06:00;;;;;;;;;;;0.50;99.90;;;;;;5042528;28;19916;-83
2022/01/06 07:08:25;;;;;;;;;;;0.70;99.90;;;;;;5036710;28;19975;-83
2022/01/06 07:10:51;;;;;;;;;;;0.60;99.90;;;;;;5037360;28;19919;-83
2022/01/06 07:13:18;;;;;;;;;;;0.60;99.90;;;;;;5035774;28;20345;-83
2022/01/06 07:15:44;;;;;;;;;;;0.70;99.90;;;;;;5036158;28;19924;-83
2022/01/06 07:18:10;;;;;;;;;;;0.70;99.90;;;;;;5052965;28;19928;-83
2022/01/06 07:20:35;;;;;;;;;;;0.70;99.90;;;;;;5033742;28;20229;-83
2022/01/06 07:23:01;;;;;;;;;;;0.70;99.90;;;;;;5036655;28;19927;-87
2022/01/06 07:25:26;;;;;;;;;;;0.70;99.90;;;;;;5034739;28;20330;-85
2022/01/06 07:27:52;;;;;;;;;;;0.60;99.90;;;;;;5038774;28;19912;-88
2022/01/06 07:30:18;;;;;;;;;;;0.60;99.90;;;;;;5036429;28;19913;-87
2022/01/06 07:32:45;;;;;;;;;;;0.60;99.90;;;;;;5049939;28;19992;-87
2022/01/06 07:35:10;;;;;;;;;;;0.60;99.90;;;;;;5034568;28;19909;-88
2022/01/06 07:37:36;;;;;;;;;;;0.70;99.90;;;;;;5024961;28;20419;-88
2022/01/06 07:40:02;;;;;;;;;;;0.70;99.90;;;;;;5036659;28;19936;-87
2022/01/06 07:42:27;;;;;;;;;;;0.60;99.90;;;;;;5035536;28;19927;-88
2022/01/06 07:44:55;;;;;;;;;;;0.70;99.90;;;;;;5039072;28;20363;-88
2022/01/06 07:47:20;;;;;;;;;;;0.60;99.90;;;;;;5033760;28;19962;-88
2022/01/06 07:49:46;;;;;;;;;;;0.60;99.90;;;;;;5051119;28;20356;-87
2022/01/06 07:52:11;;;;;;;;;;;0.60;99.90;;;;;;5050642;28;19912;-88
2022/01/06 07:54:37;;;;;;;;;;;0.70;99.90;;;;;;5035493;28;19947;-85
2022/01/06 07:57:02;;;;;;;;;;;0.60;99.90;;;;;;5054286;28;19919;-85
2022/01/06 07:59:28;;;;;;;;;;;0.70;99.90;;;;;;5057716;28;19908;-83
2022/01/06 08:01:53;;;;;;;;;;;0.60;99.90;;;;;;5058245;28;19938;-84
2022/01/06 08:04:19;;;;;;;;;;;0.70;99.90;;;;;;5041617;28;19920;-84
2022/01/06 08:06:44;;;;;;;;;;;0.70;99.90;;;;;;5042087;28;20355;-84
2022/01/06 08:09:10;;;;;;;;;;;0.70;99.90;;;;;;5043392;28;19915;-85
2022/01/06 08:11:35;;;;;;;;;;;0.70;99.90;;;;;;5042587;28;19913;-84
2022/01/06 08:14:01;;;;;;;;;;;0.80;99.90;;;;;;5041761;28;19917;-84
2022/01/06 08:16:26;;;;;;;;;;;0.80;99.90;;;;;;5043389;28;20363;-84
2022/01/06 08:18:51;;;;;;;;;;;0.80;99.90;;;;;;5044684;28;19921;-85
2022/01/06 08:21:17;;;;;;;;;;;0.80;99.90;;;;;;5044183;28;19924;-84
2022/01/06 08:23:42;;;;;;;;;;;0.90;99.90;;;;;;5043749;28;19916;-84
2022/01/06 08:26:08;;;;;;;;;;;0.80;99.90;;;;;;5031585;28;19995;-84
2022/01/06 08:28:34;;;;;;;;;;;0.90;99.90;;;;;;5043515;28;20507;-84
2022/01/06 08:30:59;;;;;;;;;;;0.90;99.90;;;;;;5040901;28;19920;-83
2022/01/06 08:33:26;;;;;;;;;;;0.90;99.90;;;;;;5046655;28;19979;-84
2022/01/06 08:35:51;;;;;;;;;;;0.90;99.90;;;;;;5050605;28;19944;-84
2022/01/06 08:38:17;;;;;;;;;;;1.00;99.90;;;;;;5041394;28;20795;-84
2022/01/06 08:40:42;;;;;;;;;;;1.00;99.90;;;;;;5057328;28;19916;-84
2022/01/06 08:43:08;;;;;;;;;;;1.00;99.90;;;;;;5060745;28;19916;-84
2022/01/06 08:45:33;;;;;;;;;;;1.00;99.90;;;;;;5041222;28;19920;-84
2022/01/06 08:47:59;;;;;;;;;;;1.10;99.90;;;;;;5043231;28;20349;-84
2022/01/06 08:50:25;;;;;;;;;;;1.10;99.90;;;;;;5058382;28;19916;-84
2022/01/06 08:52:51;;;;;;;;;;;1.10;99.90;;;;;;5043662;28;19913;-84
2022/01/06 08:55:17;;;;;;;;;;;1.10;99.90;;;;;;5047363;28;19947;-83
2022/01/06 08:57:42;;;;;;;;;;;1.20;99.90;;;;;;5061997;28;19909;-85
2022/01/06 09:00:09;;;;;;;;;;;1.20;99.90;;;;;;5058931;28;20280;-84
2022/01/06 09:02:35;;;;;;;;;;;1.30;99.90;;;;;;5051278;28;19913;-84
2022/01/06 09:05:02;;;;;;;;;;;1.30;99.90;;;;;;5065293;28;19919;-85
2022/01/06 09:07:28;;;;;;;;;;;1.40;99.90;;;;;;5069548;28;19916;-84
2022/01/06 09:09:54;;;;;;;;;;;1.40;99.90;;;;;;5059356;28;20353;-83
2022/01/06 09:12:19;;;;;;;;;;;1.40;99.90;;;;;;5047392;28;19909;-84
2022/01/06 09:14:45;;;;;;;;;;;1.40;99.90;;;;;;5049286;28;20368;-84
2022/01/06 09:17:11;;;;;;;;;;;1.50;99.90;;;;;;5049022;28;19939;-84
2022/01/06 09:19:37;;;;;;;;;;;1.50;99.90;;;;;;5045340;28;19942;-86
2022/01/06 09:22:02;;;;;;;;;;;1.50;99.90;;;;;;5060257;28;20003;-87
2022/01/06 09:24:28;;;;;;;;;;;1.50;99.90;;;;;;5044878;28;19908;-84
2022/01/06 09:26:54;;;;;;;;;;;1.60;99.90;;;;;;5041808;28;20279;-83
2022/01/06 09:29:19;;;;;;;;;;;1.60;99.90;;;;;;5039591;28;19909;-85
2022/01/06 09:31:45;;;;;;;;;;;1.60;99.90;;;;;;5048285;28;20280;-84
2022/01/06 09:34:11;;;;;;;;;;;1.70;99.90;;;;;;5039598;28;19909;-84
2022/01/06 09:36:38;;;;;;;;;;;1.70;99.90;;;;;;5053869;28;19913;-84
2022/01/06 09:39:03;;;;;;;;;;;1.70;99.90;;;;;;5055221;28;19909;-85
2022/01/06 09:41:30;;;;;;;;;;;1.70;99.90;;;;;;5039785;28;20257;-85
2022/01/06 09:43:56;;;;;;;;;;;1.80;99.90;;;;;;5045269;28;19931;-84
2022/01/06 09:46:22;;;;;;;;;;;1.80;99.90;;;;;;5044078;28;19955;-85
2022/01/06 09:48:48;;;;;;;;;;;1.80;99.90;;;;;;5065087;28;19908;-86
2022/01/06 09:51:14;;;;;;;;;;;1.90;99.90;;;;;;5040500;28;20418;-85
2022/01/06 09:53:40;;;;;;;;;;;1.90;99.90;;;;;;5047365;28;19916;-86
2022/01/06 09:56:06;;;;;;;;;;;1.90;99.90;;;;;;5059540;28;20336;-85
2022/01/06 09:58:32;;;;;;;;;;;2.00;99.90;;;;;;5044775;28;19912;-86
2022/01/06 10:00:58;;;;;;;;;;;2.10;99.90;;;;;;5039073;28;19908;-86
2022/01/06 10:03:33;;;;;;;;;;;2.10;99.90;;;;;;5056738;28;19948;-86
2022/01/06 10:06:08;;;;;;;;;;;2.20;99.90;;;;;;5052616;28;20241;-87
2022/01/06 10:08:33;;;;;;;;;;;2.20;99.90;;;;;;5024511;28;19908;-85
2022/01/06 10:11:08;;;;;;;;;;;2.30;99.90;;;;;;5042671;28;20253;-86
2022/01/06 10:13:33;;;;;;;;;;;2.30;99.90;;;;;;5042874;28;19915;-86
2022/01/06 10:15:59;;;;;;;;;;;2.40;99.90;;;;;;5060942;28;19913;-84
2022/01/06 10:18:24;;;;;;;;;;;2.50;99.90;;;;;;5046757;28;19947;-85
2022/01/06 10:20:52;;;;;;;;;;;2.80;99.90;;;;;;5034447;28;19931;-84
2022/01/06 10:23:18;;;;;;;;;;;3.20;99.90;;;;;;5042829;28;20427;-84
2022/01/06 10:25:49;;;;;;;;;;;3.20;99.90;;;;;;5045837;28;19962;-85
2022/01/06 10:28:18;;;;;;;;;;;3.10;99.90;;;;;;5054539;28;19995;-84
2022/01/06 10:30:48;;;;;;;;;;;2.80;99.90;;;;;;5039534;28;20280;-85
2022/01/06 10:33:17;;;;;;;;;;;2.80;99.90;;;;;;5045004;28;20319;-84
2022/01/06 10:35:42;;;;;;;;;;;2.80;99.90;;;;;;5040072;28;19909;-84
2022/01/06 10:38:08;;;;;;;;;;;3.00;99.90;;;;;;5041833;28;19916;-84
2022/01/06 10:40:34;;;;;;;;;;;3.10;99.90;;;;;;5056112;28;19962;-84
2022/01/06 10:43:05;;;;;;;;;;;3.40;99.90;;;;;;5040343;28;20265;-84
2022/01/06 10:45:31;;;;;;;;;;;3.50;99.90;;;;;;5060430;28;20446;-83
2022/01/06 10:47:58;;;;;;;;;;;3.60;99.90;;;;;;5041498;28;19916;-84
2022/01/06 10:50:28;;;;;;;;;;;3.90;99.90;;;;;;5054890;28;19909;-84
2022/01/06 10:52:58;;;;;;;;;;;3.90;99.90;;;;;;5041164;28;20274;-84
2022/01/06 10:55:28;;;;;;;;;;;3.90;99.90;;;;;;5038407;28;20348;-84
2022/01/06 10:58:01;;;;;;;;;;;4.10;99.90;;;;;;5043816;28;20328;-85
2022/01/06 11:00:28;;;;;;;;;;;4.10;99.90;;;;;;5041554;28;20283;-85
2022/01/06 11:03:04;;;;;;;;;;;4.20;99.90;;;;;;5055029;28;19946;-85
2022/01/06 11:05:29;;;;;;;;;;;4.60;99.90;;;;;;5033469;28;19927;-85
2022/01/06 11:07:55;;;;;;;;;;;4.90;99.90;;;;;;5042260;28;20348;-85
2022/01/06 11:10:22;;;;;;;;;;;4.90;99.90;;;;;;5035711;28;19915;-85
2022/01/06 11:12:49;;;;;;;;;;;4.80;99.90;;;;;;5059891;28;19916;-85
2022/01/06 11:15:15;;;;;;;;;;;4.60;99.90;;;;;;5047392;28;19916;-84
2022/01/06 11:17:45;;;;;;;;;;;4.60;99.90;;;;;;5040262;28;20356;-85
2022/01/06 11:20:11;;;;;;;;;;;4.80;99.90;;;;;;5038512;28;20127;-85
2022/01/06 11:22:47;;;;;;;;;;;4.90;99.90;;;;;;5046641;28;20372;-84
2022/01/06 11:25:13;;;;;;;;;;;4.90;99.90;;;;;;5036985;28;20275;-84
2022/01/06 11:27:38;;;;;;;;;;;4.90;99.90;;;;;;5044338;28;19915;-86
2022/01/06 11:30:08;;;;;;;;;;;5.50;99.90;;;;;;5042157;28;20003;-85
2022/01/06 11:32:33;;;;;;;;;;;5.90;99.90;;;;;;5027363;28;19915;-85
2022/01/06 11:35:07;;;;;;;;;;;5.70;99.90;;;;;;5041855;28;19991;-85
2022/01/06 11:37:42;;;;;;;;;;;5.30;99.90;;;;;;5042783;28;19999;-85
2022/01/06 11:40:07;;;;;;;;;;;4.90;99.90;;;;;;5054852;28;20340;-85
2022/01/06 11:42:33;;;;;;;;;;;4.80;99.90;;;;;;5042335;28;19959;-84
2022/01/06 11:44:59;;;;;;;;;;;4.70;99.90;;;;;;5044660;28;19971;-86
2022/01/06 11:47:39;;;;;;;;;;;4.70;99.90;;;;;;5033521;28;19982;-86
2022/01/06 11:50:09;;;;;;;;;;;5.10;99.90;;;;;;5030723;28;19958;-86
2022/01/06 11:52:34;;;;;;;;;;;5.70;99.90;;;;;;5038744;28;20356;-86
2022/01/06 11:55:02;;;;;;;;;;;6.30;99.90;;;;;;5057327;28;19908;-87
2022/01/06 11:57:34;;;;;;;;;;;6.70;99.90;;;;;;5055618;28;19959;-86
2022/01/06 12:00:15;;;;;;;;;;;6.00;99.90;;;;;;5053926;28;19913;-85
2022/01/06 12:02:42;;;;;;;;;;;5.30;99.90;;;;;;5054063;28;19917;-85
2022/01/06 12:05:08;;;;;;;;;;;4.90;99.90;;;;;;5043355;28;19916;-85
2022/01/06 12:07:36;;;;;;;;;;;5.10;99.90;;;;;;5039613;28;19955;-85
2022/01/06 12:10:09;;;;;;;;;;;4.70;99.90;;;;;;5042940;28;19917;-85
2022/01/06 12:12:36;;;;;;;;;;;4.90;99.90;;;;;;5054074;28;19909;-85
2022/01/06 12:15:08;;;;;;;;;;;5.30;99.90;;;;;;5040488;28;20034;-85
2022/01/06 12:17:33;;;;;;;;;;;5.50;99.90;;;;;;5038265;28;19950;-85
2022/01/06 12:19:59;;;;;;;;;;;5.60;99.90;;;;;;5045078;28;19987;-85
2022/01/06 12:22:26;;;;;;;;;;;5.40;99.90;;;;;;5033974;28;19913;-85
2022/01/06 12:25:04;;;;;;;;;;;5.30;99.90;;;;;;5036437;28;20336;-86
2022/01/06 12:27:30;;;;;;;;;;;5.10;99.90;;;;;;5033320;28;19909;-85
2022/01/06 12:29:56;;;;;;;;;;;5.20;99.90;;;;;;5042558;28;19916;-84
2022/01/06 12:32:22;;;;;;;;;;;5.30;99.90;;;;;;5035399;28;19959;-85
2022/01/06 12:34:51;;;;;;;;;;;5.40;99.90;;;;;;5033760;28;21196;-85
2022/01/06 12:37:23;;;;;;;;;;;5.80;99.90;;;;;;5035889;28;20384;-85
2022/01/06 12:39:48;;;;;;;;;;;6.90;99.90;;;;;;5036005;28;19910;-85
2022/01/06 12:42:14;;;;;;;;;;;6.50;99.90;;;;;;5038021;28;20258;-86
2022/01/06 12:44:40;;;;;;;;;;;6.10;99.90;;;;;;5042120;28;20403;-85
2022/01/06 12:47:05;;;;;;;;;;;5.50;99.90;;;;;;5037373;28;20036;-86
2022/01/06 12:49:31;;;;;;;;;;;5.00;99.90;;;;;;5040034;28;20408;-85
2022/01/06 12:51:57;;;;;;;;;;;4.90;99.90;;;;;;5036584;28;19909;-86
2022/01/06 12:54:23;;;;;;;;;;;4.70;99.90;;;;;;5040406;28;20246;-85
2022/01/06 12:56:55;;;;;;;;;;;4.50;99.90;;;;;;5034523;28;19920;-86
2022/01/06 12:59:24;;;;;;;;;;;4.50;99.90;;;;;;5045305;28;20463;-87
2022/01/06 13:01:54;;;;;;;;;;;4.40;99.90;;;;;;5038415;28;19913;-86
2022/01/06 13:04:27;;;;;;;;;;;4.20;99.90;;;;;;5039470;28;19908;-84
2022/01/06 13:06:53;;;;;;;;;;;4.10;99.90;;;;;;5041983;28;19940;-85
2022/01/06 13:09:20;;;;;;;;;;;4.10;99.90;;;;;;5045098;28;19909;-84
2022/01/06 13:11:51;;;;;;;;;;;4.00;99.90;;;;;;5039314;28;19951;-83
2022/01/06 13:14:43;;;;;;;;;;;3.90;99.90;;;;;;5042712;28;20356;-84
2022/01/06 13:17:09;;;;;;;;;;;3.80;99.90;;;;;;5044497;28;20371;-83
2022/01/06 13:19:36;;;;;;;;;;;3.80;99.90;;;;;;5052356;28;19943;-86
2022/01/06 13:22:06;;;;;;;;;;;3.80;99.90;;;;;;5036984;28;20307;-86
2022/01/06 13:24:35;;;;;;;;;;;3.70;99.90;;;;;;5041266;28;20613;-86
2022/01/06 13:27:00;;;;;;;;;;;3.70;99.90;;;;;;5037350;28;19912;-87
2022/01/06 13:29:30;;;;;;;;;;;3.70;99.90;;;;;;5034443;28;19915;-88
2022/01/06 13:32:16;;;;;;;;;;;3.70;99.90;;;;;;5038508;28;20388;-86
2022/01/06 13:34:47;;;;;;;;;;;3.70;99.90;;;;;;5030232;28;19959;-88
2022/01/06 13:37:14;;;;;;;;;;;3.70;99.90;;;;;;5035086;28;19916;-87
2022/01/06 13:39:54;;;;;;;;;;;3.70;99.90;;;;;;5030988;28;19909;-87
2022/01/06 13:42:23;;;;;;;;;;;3.70;99.90;;;;;;5041486;28;20368;-85
2022/01/06 13:44:49;;;;;;;;;;;3.60;99.90;;;;;;5033660;28;19939;-85
2022/01/06 13:47:18;;;;;;;;;;;3.70;99.90;;;;;;5038905;28;19919;-85
2022/01/06 13:52:30;;;;;;;;;;;3.60;99.90;;;;;;5037404;28;20276;-87
2022/01/06 13:54:56;;;;;;;;;;;3.70;99.90;;;;;;5038049;28;19908;-85
2022/01/06 13:57:22;;;;;;;;;;;3.70;99.90;;;;;;5038138;28;20276;-86
2022/01/06 13:59:53;;;;;;;;;;;3.60;99.90;;;;;;5032089;28;19915;-87
2022/01/06 14:02:24;;;;;;;;;;;3.60;99.90;;;;;;5037847;28;19932;-86
2022/01/06 14:04:50;;;;;;;;;;;3.60;99.90;;;;;;5040246;28;19908;-88
2022/01/06 14:07:15;;;;;;;;;;;3.60;99.90;;;;;;5038843;28;20378;-86
2022/01/06 14:09:41;;;;;;;;;;;3.50;99.90;;;;;;5035490;28;19943;-86
2022/01/06 14:12:07;;;;;;;;;;;3.50;99.90;;;;;;5030678;28;19910;-86
2022/01/06 14:14:32;;;;;;;;;;;3.50;99.90;;;;;;5035507;28;19909;-86
2022/01/06 14:16:58;;;;;;;;;;;3.50;99.90;;;;;;5039562;28;19913;-86
2022/01/06 14:19:24;;;;;;;;;;;3.50;99.90;;;;;;5032829;28;19964;-86
2022/01/06 14:21:49;;;;;;;;;;;3.40;99.90;;;;;;5040285;28;19921;-86
2022/01/06 14:24:15;;;;;;;;;;;3.40;99.90;;;;;;5033971;28;20291;-85
2022/01/06 14:26:40;;;;;;;;;;;3.30;99.90;;;;;;5034830;28;20379;-88
2022/01/06 14:29:08;;;;;;;;;;;3.40;99.90;;;;;;5034655;28;19913;-86
2022/01/06 14:31:35;;;;;;;;;;;3.30;99.90;;;;;;5037872;28;19956;-86
2022/01/06 14:34:01;;;;;;;;;;;3.30;99.90;;;;;;5039213;28;20280;-86
2022/01/06 14:36:27;;;;;;;;;;;3.30;99.90;;;;;;5038983;28;19909;-87
2022/01/06 14:38:52;;;;;;;;;;;3.30;99.90;;;;;;5038035;28;19917;-87